sensor_id;sensor_type;location;lat;lon;timestamp;P1;durP1;ratioP1;P2;durP2;ratioP2
53594;SDS011;39479;45.720;11.310;2022-07-29T00:00:59;6.20;;;3.80;;
53594;SDS011;39479;45.720;11.310;2022-07-29T00:03:25;6.53;;;3.60;;
53594;SDS011;39479;45.720;11.310;2022-07-29T00:05:52;4.65;;;3.15;;
53594;SDS011;39479;45.720;11.310;2022-07-29T00:08:18;6.53;;;3.30;;
53594;SDS011;39479;45.720;11.310;2022-07-29T00:10:44;6.75;;;3.38;;
53594;SDS011;39479;45.720;11.310;2022-07-29T00:13:11;5.70;;;3.10;;
53594;SDS011;39479;45.720;11.310;2022-07-29T00:15:37;7.03;;;3.13;;
53594;SDS011;39479;45.720;11.310;2022-07-29T00:18:03;4.35;;;2.85;;
53594;SDS011;39479;45.720;11.310;2022-07-29T00:20:29;5.93;;;3.70;;
53594;SDS011;39479;45.720;11.310;2022-07-29T00:22:55;5.05;;;3.20;;
53594;SDS011;39479;45.720;11.310;2022-07-29T00:25:21;8.18;;;3.28;;
53594;SDS011;39479;45.720;11.310;2022-07-29T00:27:47;4.47;;;3.13;;
53594;SDS011;39479;45.720;11.310;2022-07-29T00:30:13;5.65;;;3.40;;
53594;SDS011;39479;45.720;11.310;2022-07-29T00:32:39;3.72;;;3.03;;
53594;SDS011;39479;45.720;11.310;2022-07-29T00:35:05;5.53;;;3.30;;
53594;SDS011;39479;45.720;11.310;2022-07-29T00:40:16;5.22;;;3.13;;
53594;SDS011;39479;45.720;11.310;2022-07-29T00:42:46;13.75;;;3.97;;
53594;SDS011;39479;45.720;11.310;2022-07-29T00:45:12;2.92;;;2.70;;
53594;SDS011;39479;45.720;11.310;2022-07-29T00:47:39;4.30;;;3.28;;
53594;SDS011;39479;45.720;11.310;2022-07-29T00:50:06;5.15;;;2.58;;
53594;SDS011;39479;45.720;11.310;2022-07-29T00:52:33;4.97;;;2.70;;
53594;SDS011;39479;45.720;11.310;2022-07-29T00:54:59;3.30;;;2.70;;
53594;SDS011;39479;45.720;11.310;2022-07-29T00:57:25;4.07;;;2.72;;
53594;SDS011;39479;45.720;11.310;2022-07-29T00:59:51;3.53;;;2.55;;
53594;SDS011;39479;45.720;11.310;2022-07-29T01:02:17;2.70;;;2.50;;
53594;SDS011;39479;45.720;11.310;2022-07-29T01:04:43;2.50;;;2.30;;
53594;SDS011;39479;45.720;11.310;2022-07-29T01:07:09;2.45;;;2.25;;
53594;SDS011;39479;45.720;11.310;2022-07-29T01:09:35;2.45;;;2.25;;
53594;SDS011;39479;45.720;11.310;2022-07-29T01:12:02;2.92;;;2.58;;
53594;SDS011;39479;45.720;11.310;2022-07-29T01:14:29;5.03;;;2.60;;
53594;SDS011;39479;45.720;11.310;2022-07-29T01:17:04;3.38;;;2.72;;
53594;SDS011;39479;45.720;11.310;2022-07-29T01:21:59;4.70;;;2.70;;
53594;SDS011;39479;45.720;11.310;2022-07-29T01:29:57;4.68;;;2.72;;
53594;SDS011;39479;45.720;11.310;2022-07-29T01:32:28;3.90;;;2.70;;
53594;SDS011;39479;45.720;11.310;2022-07-29T01:40:11;3.97;;;2.70;;
53594;SDS011;39479;45.720;11.310;2022-07-29T01:42:43;3.17;;;2.78;;
53594;SDS011;39479;45.720;11.310;2022-07-29T01:50:21;2.35;;;2.10;;
53594;SDS011;39479;45.720;11.310;2022-07-29T01:53:09;2.40;;;2.20;;
53594;SDS011;39479;45.720;11.310;2022-07-29T01:55:39;2.47;;;2.28;;
53594;SDS011;39479;45.720;11.310;2022-07-29T01:58:06;2.97;;;2.40;;
53594;SDS011;39479;45.720;11.310;2022-07-29T02:00:33;2.75;;;2.53;;
53594;SDS011;39479;45.720;11.310;2022-07-29T02:03:04;2.78;;;2.33;;
53594;SDS011;39479;45.720;11.310;2022-07-29T02:05:31;2.60;;;2.40;;
53594;SDS011;39479;45.720;11.310;2022-07-29T02:07:58;3.25;;;2.45;;
53594;SDS011;39479;45.720;11.310;2022-07-29T02:10:26;2.42;;;2.22;;
53594;SDS011;39479;45.720;11.310;2022-07-29T02:12:54;2.58;;;2.33;;
53594;SDS011;39479;45.720;11.310;2022-07-29T02:15:21;2.22;;;2.10;;
53594;SDS011;39479;45.720;11.310;2022-07-29T02:17:49;2.10;;;1.98;;
53594;SDS011;39479;45.720;11.310;2022-07-29T02:20:17;2.70;;;2.20;;
53594;SDS011;39479;45.720;11.310;2022-07-29T02:22:44;2.65;;;2.45;;
53594;SDS011;39479;45.720;11.310;2022-07-29T02:25:10;4.90;;;2.33;;
53594;SDS011;39479;45.720;11.310;2022-07-29T02:27:36;2.45;;;2.30;;
53594;SDS011;39479;45.720;11.310;2022-07-29T02:30:03;5.25;;;2.60;;
53594;SDS011;39479;45.720;11.310;2022-07-29T02:32:30;2.60;;;2.40;;
53594;SDS011;39479;45.720;11.310;2022-07-29T02:34:57;2.92;;;2.10;;
53594;SDS011;39479;45.720;11.310;2022-07-29T02:37:24;2.67;;;2.22;;
53594;SDS011;39479;45.720;11.310;2022-07-29T02:39:52;5.35;;;2.30;;
53594;SDS011;39479;45.720;11.310;2022-07-29T02:42:19;2.30;;;2.10;;
53594;SDS011;39479;45.720;11.310;2022-07-29T02:44:46;2.17;;;2.08;;
53594;SDS011;39479;45.720;11.310;2022-07-29T02:47:20;2.40;;;2.13;;
53594;SDS011;39479;45.720;11.310;2022-07-29T02:49:55;2.60;;;2.40;;
53594;SDS011;39479;45.720;11.310;2022-07-29T02:54:51;2.65;;;2.45;;
53594;SDS011;39479;45.720;11.310;2022-07-29T02:57:30;2.70;;;2.40;;
53594;SDS011;39479;45.720;11.310;2022-07-29T02:59:59;2.17;;;2.03;;
53594;SDS011;39479;45.720;11.310;2022-07-29T03:02:29;2.58;;;2.38;;
53594;SDS011;39479;45.720;11.310;2022-07-29T03:04:57;2.78;;;2.30;;
53594;SDS011;39479;45.720;11.310;2022-07-29T03:07:23;3.08;;;2.35;;
53594;SDS011;39479;45.720;11.310;2022-07-29T03:09:49;3.40;;;2.30;;
53594;SDS011;39479;45.720;11.310;2022-07-29T03:12:16;2.50;;;2.30;;
53594;SDS011;39479;45.720;11.310;2022-07-29T03:14:42;2.58;;;2.30;;
53594;SDS011;39479;45.720;11.310;2022-07-29T03:17:09;2.53;;;2.33;;
53594;SDS011;39479;45.720;11.310;2022-07-29T03:19:35;2.63;;;2.30;;
53594;SDS011;39479;45.720;11.310;2022-07-29T03:22:02;6.38;;;2.38;;
53594;SDS011;39479;45.720;11.310;2022-07-29T03:24:30;2.55;;;2.40;;
53594;SDS011;39479;45.720;11.310;2022-07-29T03:26:57;2.60;;;2.40;;
53594;SDS011;39479;45.720;11.310;2022-07-29T03:29:23;2.40;;;2.28;;
53594;SDS011;39479;45.720;11.310;2022-07-29T03:31:50;2.60;;;2.40;;
53594;SDS011;39479;45.720;11.310;2022-07-29T03:34:16;4.90;;;2.70;;
53594;SDS011;39479;45.720;11.310;2022-07-29T03:36:42;2.70;;;2.50;;
53594;SDS011;39479;45.720;11.310;2022-07-29T03:39:08;3.03;;;2.83;;
53594;SDS011;39479;45.720;11.310;2022-07-29T03:41:35;2.78;;;2.58;;
53594;SDS011;39479;45.720;11.310;2022-07-29T03:44:02;3.53;;;2.40;;
53594;SDS011;39479;45.720;11.310;2022-07-29T03:46:29;2.70;;;2.50;;
53594;SDS011;39479;45.720;11.310;2022-07-29T03:48:58;2.80;;;2.60;;
53594;SDS011;39479;45.720;11.310;2022-07-29T03:51:25;2.60;;;2.40;;
53594;SDS011;39479;45.720;11.310;2022-07-29T03:53:52;2.55;;;2.35;;
53594;SDS011;39479;45.720;11.310;2022-07-29T03:56:19;3.38;;;2.75;;
53594;SDS011;39479;45.720;11.310;2022-07-29T03:58:46;4.80;;;2.80;;
53594;SDS011;39479;45.720;11.310;2022-07-29T04:01:13;4.22;;;2.75;;
53594;SDS011;39479;45.720;11.310;2022-07-29T04:03:40;2.85;;;2.65;;
53594;SDS011;39479;45.720;11.310;2022-07-29T04:06:06;4.53;;;2.42;;
53594;SDS011;39479;45.720;11.310;2022-07-29T04:08:32;3.10;;;2.83;;
53594;SDS011;39479;45.720;11.310;2022-07-29T04:10:59;4.05;;;2.83;;
53594;SDS011;39479;45.720;11.310;2022-07-29T04:13:25;2.53;;;2.33;;
53594;SDS011;39479;45.720;11.310;2022-07-29T04:15:51;3.22;;;2.92;;
53594;SDS011;39479;45.720;11.310;2022-07-29T04:18:17;2.88;;;2.67;;
53594;SDS011;39479;45.720;11.310;2022-07-29T04:20:43;3.40;;;2.90;;
53594;SDS011;39479;45.720;11.310;2022-07-29T04:23:09;7.18;;;3.20;;
53594;SDS011;39479;45.720;11.310;2022-07-29T04:25:39;3.15;;;2.88;;
53594;SDS011;39479;45.720;11.310;2022-07-29T04:28:05;3.17;;;2.88;;
53594;SDS011;39479;45.720;11.310;2022-07-29T04:30:32;5.57;;;2.90;;
53594;SDS011;39479;45.720;11.310;2022-07-29T04:32:58;2.92;;;2.70;;
53594;SDS011;39479;45.720;11.310;2022-07-29T04:35:25;3.28;;;2.97;;
53594;SDS011;39479;45.720;11.310;2022-07-29T04:37:52;3.40;;;3.10;;
53594;SDS011;39479;45.720;11.310;2022-07-29T04:40:18;3.50;;;3.20;;
53594;SDS011;39479;45.720;11.310;2022-07-29T04:42:44;3.13;;;2.88;;
53594;SDS011;39479;45.720;11.310;2022-07-29T04:45:10;3.20;;;2.95;;
53594;SDS011;39479;45.720;11.310;2022-07-29T04:47:36;3.95;;;3.22;;
53594;SDS011;39479;45.720;11.310;2022-07-29T04:50:02;3.35;;;3.05;;
53594;SDS011;39479;45.720;11.310;2022-07-29T04:52:28;4.18;;;3.10;;
53594;SDS011;39479;45.720;11.310;2022-07-29T04:54:54;3.40;;;3.10;;
53594;SDS011;39479;45.720;11.310;2022-07-29T04:57:20;4.47;;;3.22;;
53594;SDS011;39479;45.720;11.310;2022-07-29T04:59:47;4.30;;;3.22;;
53594;SDS011;39479;45.720;11.310;2022-07-29T05:02:13;3.50;;;3.03;;
53594;SDS011;39479;45.720;11.310;2022-07-29T05:04:39;4.95;;;3.10;;
53594;SDS011;39479;45.720;11.310;2022-07-29T05:07:05;3.17;;;2.72;;
53594;SDS011;39479;45.720;11.310;2022-07-29T05:09:31;3.55;;;2.80;;
53594;SDS011;39479;45.720;11.310;2022-07-29T05:11:57;3.15;;;2.83;;
53594;SDS011;39479;45.720;11.310;2022-07-29T05:14:23;5.28;;;2.97;;
53594;SDS011;39479;45.720;11.310;2022-07-29T05:16:49;3.53;;;2.50;;
53594;SDS011;39479;45.720;11.310;2022-07-29T05:19:16;3.22;;;2.65;;
53594;SDS011;39479;45.720;11.310;2022-07-29T05:21:43;3.45;;;3.05;;
53594;SDS011;39479;45.720;11.310;2022-07-29T05:24:10;3.58;;;2.55;;
53594;SDS011;39479;45.720;11.310;2022-07-29T05:26:36;2.67;;;2.55;;
53594;SDS011;39479;45.720;11.310;2022-07-29T05:29:02;2.80;;;2.60;;
53594;SDS011;39479;45.720;11.310;2022-07-29T05:31:28;2.95;;;2.70;;
53594;SDS011;39479;45.720;11.310;2022-07-29T05:33:54;2.75;;;2.55;;
53594;SDS011;39479;45.720;11.310;2022-07-29T05:36:20;3.47;;;2.75;;
53594;SDS011;39479;45.720;11.310;2022-07-29T05:38:46;2.70;;;2.50;;
53594;SDS011;39479;45.720;11.310;2022-07-29T05:41:12;4.32;;;2.45;;
53594;SDS011;39479;45.720;11.310;2022-07-29T05:43:38;2.63;;;2.50;;
53594;SDS011;39479;45.720;11.310;2022-07-29T05:46:04;3.42;;;2.50;;
53594;SDS011;39479;45.720;11.310;2022-07-29T05:48:30;3.67;;;2.40;;
53594;SDS011;39479;45.720;11.310;2022-07-29T05:50:57;4.18;;;2.92;;
53594;SDS011;39479;45.720;11.310;2022-07-29T05:53:23;5.20;;;2.42;;
53594;SDS011;39479;45.720;11.310;2022-07-29T05:55:49;2.75;;;2.55;;
53594;SDS011;39479;45.720;11.310;2022-07-29T05:58:15;3.88;;;2.50;;
53594;SDS011;39479;45.720;11.310;2022-07-29T06:00:41;3.05;;;2.63;;
53594;SDS011;39479;45.720;11.310;2022-07-29T06:03:07;3.70;;;2.40;;
53594;SDS011;39479;45.720;11.310;2022-07-29T06:05:33;2.30;;;2.10;;
53594;SDS011;39479;45.720;11.310;2022-07-29T06:07:59;2.28;;;2.17;;
53594;SDS011;39479;45.720;11.310;2022-07-29T06:10:25;3.25;;;2.25;;
53594;SDS011;39479;45.720;11.310;2022-07-29T06:12:52;2.47;;;2.22;;
53594;SDS011;39479;45.720;11.310;2022-07-29T06:15:18;3.20;;;2.17;;
53594;SDS011;39479;45.720;11.310;2022-07-29T06:17:44;2.55;;;2.35;;
53594;SDS011;39479;45.720;11.310;2022-07-29T06:20:10;2.50;;;2.20;;
53594;SDS011;39479;45.720;11.310;2022-07-29T06:22:36;4.45;;;2.30;;
53594;SDS011;39479;45.720;11.310;2022-07-29T06:25:02;4.05;;;2.40;;
53594;SDS011;39479;45.720;11.310;2022-07-29T06:27:28;3.50;;;2.60;;
53594;SDS011;39479;45.720;11.310;2022-07-29T06:29:55;3.95;;;3.05;;
53594;SDS011;39479;45.720;11.310;2022-07-29T06:32:21;2.40;;;2.20;;
53594;SDS011;39479;45.720;11.310;2022-07-29T06:34:47;2.80;;;2.60;;
53594;SDS011;39479;45.720;11.310;2022-07-29T06:37:14;2.97;;;2.45;;
53594;SDS011;39479;45.720;11.310;2022-07-29T06:39:40;3.25;;;2.40;;
53594;SDS011;39479;45.720;11.310;2022-07-29T06:42:06;3.17;;;2.47;;
53594;SDS011;39479;45.720;11.310;2022-07-29T06:44:32;2.55;;;2.35;;
53594;SDS011;39479;45.720;11.310;2022-07-29T06:46:59;2.47;;;2.30;;
53594;SDS011;39479;45.720;11.310;2022-07-29T06:49:25;2.78;;;2.35;;
53594;SDS011;39479;45.720;11.310;2022-07-29T06:51:52;2.40;;;2.25;;
53594;SDS011;39479;45.720;11.310;2022-07-29T06:54:18;2.90;;;2.60;;
53594;SDS011;39479;45.720;11.310;2022-07-29T06:56:44;2.58;;;2.40;;
53594;SDS011;39479;45.720;11.310;2022-07-29T06:59:11;2.42;;;2.22;;
53594;SDS011;39479;45.720;11.310;2022-07-29T07:01:37;4.07;;;2.45;;
53594;SDS011;39479;45.720;11.310;2022-07-29T07:04:04;4.43;;;2.67;;
53594;SDS011;39479;45.720;11.310;2022-07-29T07:06:30;4.15;;;3.05;;
53594;SDS011;39479;45.720;11.310;2022-07-29T07:08:56;2.88;;;2.67;;
53594;SDS011;39479;45.720;11.310;2022-07-29T07:11:22;2.63;;;2.45;;
53594;SDS011;39479;45.720;11.310;2022-07-29T07:13:49;2.58;;;2.38;;
53594;SDS011;39479;45.720;11.310;2022-07-29T07:16:15;4.55;;;2.67;;
53594;SDS011;39479;45.720;11.310;2022-07-29T07:18:41;2.58;;;2.38;;
53594;SDS011;39479;45.720;11.310;2022-07-29T07:21:07;3.13;;;2.50;;
53594;SDS011;39479;45.720;11.310;2022-07-29T07:23:33;2.38;;;2.28;;
53594;SDS011;39479;45.720;11.310;2022-07-29T07:25:59;2.97;;;2.47;;
53594;SDS011;39479;45.720;11.310;2022-07-29T07:28:25;2.72;;;2.53;;
53594;SDS011;39479;45.720;11.310;2022-07-29T07:30:51;3.05;;;2.55;;
53594;SDS011;39479;45.720;11.310;2022-07-29T07:33:18;2.35;;;2.25;;
53594;SDS011;39479;45.720;11.310;2022-07-29T07:35:44;2.40;;;2.30;;
53594;SDS011;39479;45.720;11.310;2022-07-29T07:38:10;3.47;;;2.50;;
53594;SDS011;39479;45.720;11.310;2022-07-29T07:40:36;3.40;;;2.95;;
53594;SDS011;39479;45.720;11.310;2022-07-29T07:43:02;5.53;;;4.20;;
53594;SDS011;39479;45.720;11.310;2022-07-29T07:45:28;3.95;;;3.25;;
53594;SDS011;39479;45.720;11.310;2022-07-29T07:47:54;3.50;;;3.17;;
53594;SDS011;39479;45.720;11.310;2022-07-29T07:50:20;3.10;;;2.80;;
53594;SDS011;39479;45.720;11.310;2022-07-29T07:52:50;4.00;;;2.70;;
53594;SDS011;39479;45.720;11.310;2022-07-29T07:55:17;5.63;;;3.50;;
53594;SDS011;39479;45.720;11.310;2022-07-29T07:57:43;2.60;;;2.40;;
53594;SDS011;39479;45.720;11.310;2022-07-29T08:00:09;2.70;;;2.50;;
53594;SDS011;39479;45.720;11.310;2022-07-29T08:02:37;2.60;;;2.40;;
53594;SDS011;39479;45.720;11.310;2022-07-29T08:05:04;2.42;;;2.22;;
53594;SDS011;39479;45.720;11.310;2022-07-29T08:07:30;2.50;;;2.30;;
53594;SDS011;39479;45.720;11.310;2022-07-29T08:09:56;2.67;;;2.47;;
53594;SDS011;39479;45.720;11.310;2022-07-29T08:12:22;2.85;;;2.65;;
53594;SDS011;39479;45.720;11.310;2022-07-29T08:14:48;2.63;;;2.42;;
53594;SDS011;39479;45.720;11.310;2022-07-29T08:17:14;3.13;;;2.72;;
53594;SDS011;39479;45.720;11.310;2022-07-29T08:19:40;3.15;;;2.92;;
53594;SDS011;39479;45.720;11.310;2022-07-29T08:22:06;2.80;;;2.60;;
53594;SDS011;39479;45.720;11.310;2022-07-29T08:24:32;2.97;;;2.78;;
53594;SDS011;39479;45.720;11.310;2022-07-29T08:27:17;4.05;;;2.95;;
53594;SDS011;39479;45.720;11.310;2022-07-29T08:29:43;3.42;;;3.00;;
53594;SDS011;39479;45.720;11.310;2022-07-29T08:32:09;2.90;;;2.70;;
53594;SDS011;39479;45.720;11.310;2022-07-29T08:34:35;2.95;;;2.65;;
53594;SDS011;39479;45.720;11.310;2022-07-29T08:37:01;3.08;;;2.78;;
53594;SDS011;39479;45.720;11.310;2022-07-29T08:39:27;4.28;;;2.80;;
53594;SDS011;39479;45.720;11.310;2022-07-29T08:41:53;3.30;;;3.00;;
53594;SDS011;39479;45.720;11.310;2022-07-29T08:44:20;4.60;;;2.88;;
53594;SDS011;39479;45.720;11.310;2022-07-29T08:46:46;3.00;;;2.80;;
53594;SDS011;39479;45.720;11.310;2022-07-29T08:49:12;3.35;;;3.05;;
53594;SDS011;39479;45.720;11.310;2022-07-29T08:51:39;3.83;;;2.90;;
53594;SDS011;39479;45.720;11.310;2022-07-29T08:54:06;3.70;;;3.10;;
53594;SDS011;39479;45.720;11.310;2022-07-29T08:56:33;3.22;;;2.60;;
53594;SDS011;39479;45.720;11.310;2022-07-29T08:58:59;3.17;;;2.95;;
53594;SDS011;39479;45.720;11.310;2022-07-29T09:01:27;4.75;;;3.20;;
53594;SDS011;39479;45.720;11.310;2022-07-29T09:03:55;3.50;;;3.20;;
53594;SDS011;39479;45.720;11.310;2022-07-29T09:06:22;3.17;;;2.88;;
53594;SDS011;39479;45.720;11.310;2022-07-29T09:08:52;4.47;;;3.13;;
53594;SDS011;39479;45.720;11.310;2022-07-29T09:11:19;3.10;;;2.90;;
53594;SDS011;39479;45.720;11.310;2022-07-29T09:13:45;3.30;;;3.00;;
53594;SDS011;39479;45.720;11.310;2022-07-29T09:16:11;3.45;;;3.15;;
53594;SDS011;39479;45.720;11.310;2022-07-29T09:18:38;3.00;;;2.80;;
53594;SDS011;39479;45.720;11.310;2022-07-29T09:21:05;3.85;;;3.00;;
53594;SDS011;39479;45.720;11.310;2022-07-29T09:26:29;3.00;;;2.80;;
53594;SDS011;39479;45.720;11.310;2022-07-29T09:28:55;4.20;;;3.10;;
53594;SDS011;39479;45.720;11.310;2022-07-29T09:31:32;4.88;;;3.15;;
53594;SDS011;39479;45.720;11.310;2022-07-29T09:33:59;3.30;;;3.00;;
53594;SDS011;39479;45.720;11.310;2022-07-29T09:36:25;3.50;;;3.20;;
53594;SDS011;39479;45.720;11.310;2022-07-29T09:39:00;3.63;;;3.20;;
53594;SDS011;39479;45.720;11.310;2022-07-29T09:41:27;3.95;;;3.20;;
53594;SDS011;39479;45.720;11.310;2022-07-29T09:43:56;4.03;;;3.63;;
53594;SDS011;39479;45.720;11.310;2022-07-29T09:46:23;3.70;;;3.15;;
53594;SDS011;39479;45.720;11.310;2022-07-29T09:49:08;3.92;;;3.10;;
53594;SDS011;39479;45.720;11.310;2022-07-29T09:51:35;3.40;;;3.10;;
53594;SDS011;39479;45.720;11.310;2022-07-29T09:54:01;3.75;;;3.17;;
53594;SDS011;39479;45.720;11.310;2022-07-29T09:56:39;3.63;;;3.33;;
53594;SDS011;39479;45.720;11.310;2022-07-29T09:59:05;3.42;;;3.17;;
53594;SDS011;39479;45.720;11.310;2022-07-29T10:01:31;3.50;;;3.20;;
53594;SDS011;39479;45.720;11.310;2022-07-29T10:03:57;3.97;;;3.38;;
53594;SDS011;39479;45.720;11.310;2022-07-29T10:06:23;3.38;;;3.10;;
53594;SDS011;39479;45.720;11.310;2022-07-29T10:08:49;3.35;;;3.05;;
53594;SDS011;39479;45.720;11.310;2022-07-29T10:11:16;4.90;;;3.30;;
53594;SDS011;39479;45.720;11.310;2022-07-29T10:13:43;3.30;;;3.10;;
53594;SDS011;39479;45.720;11.310;2022-07-29T10:16:09;3.35;;;3.10;;
53594;SDS011;39479;45.720;11.310;2022-07-29T10:18:38;3.97;;;3.60;;
53594;SDS011;39479;45.720;11.310;2022-07-29T10:21:04;4.43;;;3.38;;
53594;SDS011;39479;45.720;11.310;2022-07-29T10:23:30;4.07;;;3.60;;
53594;SDS011;39479;45.720;11.310;2022-07-29T10:25:57;3.70;;;3.40;;
53594;SDS011;39479;45.720;11.310;2022-07-29T10:28:23;3.97;;;3.60;;
53594;SDS011;39479;45.720;11.310;2022-07-29T10:30:50;5.30;;;3.70;;
53594;SDS011;39479;45.720;11.310;2022-07-29T10:36:15;3.75;;;3.45;;
53594;SDS011;39479;45.720;11.310;2022-07-29T10:38:55;4.07;;;3.67;;
53594;SDS011;39479;45.720;11.310;2022-07-29T10:41:43;4.10;;;3.70;;
53594;SDS011;39479;45.720;11.310;2022-07-29T10:44:17;5.25;;;3.90;;
53594;SDS011;39479;45.720;11.310;2022-07-29T10:46:43;5.05;;;3.90;;
53594;SDS011;39479;45.720;11.310;2022-07-29T10:59:39;4.82;;;4.15;;
53594;SDS011;39479;45.720;11.310;2022-07-29T11:07:15;5.50;;;4.10;;
53594;SDS011;39479;45.720;11.310;2022-07-29T11:09:42;5.43;;;4.40;;
53594;SDS011;39479;45.720;11.310;2022-07-29T11:14:55;4.78;;;4.38;;
53594;SDS011;39479;45.720;11.310;2022-07-29T11:17:22;4.78;;;4.28;;
53594;SDS011;39479;45.720;11.310;2022-07-29T11:19:48;7.18;;;4.30;;
53594;SDS011;39479;45.720;11.310;2022-07-29T11:22:34;5.43;;;4.93;;
53594;SDS011;39479;45.720;11.310;2022-07-29T11:25:13;5.32;;;4.72;;
53594;SDS011;39479;45.720;11.310;2022-07-29T11:27:39;5.00;;;4.50;;
53594;SDS011;39479;45.720;11.310;2022-07-29T11:30:05;5.22;;;4.72;;
53594;SDS011;39479;45.720;11.310;2022-07-29T11:32:38;5.10;;;4.55;;
53594;SDS011;39479;45.720;11.310;2022-07-29T11:35:11;7.03;;;5.05;;
53594;SDS011;39479;45.720;11.310;2022-07-29T11:37:38;4.97;;;4.13;;
53594;SDS011;39479;45.720;11.310;2022-07-29T11:44:57;5.20;;;4.70;;
53594;SDS011;39479;45.720;11.310;2022-07-29T11:47:23;5.45;;;4.90;;
53594;SDS011;39479;45.720;11.310;2022-07-29T11:49:49;5.30;;;4.80;;
53594;SDS011;39479;45.720;11.310;2022-07-29T11:52:16;6.93;;;5.00;;
53594;SDS011;39479;45.720;11.310;2022-07-29T11:54:42;6.68;;;5.15;;
53594;SDS011;39479;45.720;11.310;2022-07-29T11:57:09;5.45;;;4.95;;
53594;SDS011;39479;45.720;11.310;2022-07-29T11:59:39;5.85;;;4.93;;
53594;SDS011;39479;45.720;11.310;2022-07-29T12:02:06;5.25;;;4.70;;
53594;SDS011;39479;45.720;11.310;2022-07-29T12:04:33;8.07;;;4.90;;
53594;SDS011;39479;45.720;11.310;2022-07-29T12:06:59;5.80;;;4.65;;
53594;SDS011;39479;45.720;11.310;2022-07-29T12:09:26;7.50;;;6.60;;
53594;SDS011;39479;45.720;11.310;2022-07-29T12:11:59;6.85;;;5.53;;
53594;SDS011;39479;45.720;11.310;2022-07-29T12:14:28;5.72;;;4.72;;
53594;SDS011;39479;45.720;11.310;2022-07-29T12:16:55;4.93;;;4.53;;
53594;SDS011;39479;45.720;11.310;2022-07-29T12:19:21;5.93;;;5.30;;
53594;SDS011;39479;45.720;11.310;2022-07-29T12:21:49;6.00;;;4.88;;
53594;SDS011;39479;45.720;11.310;2022-07-29T12:24:15;5.97;;;4.97;;
53594;SDS011;39479;45.720;11.310;2022-07-29T12:26:54;5.50;;;4.85;;
53594;SDS011;39479;45.720;11.310;2022-07-29T12:29:20;5.95;;;4.72;;
53594;SDS011;39479;45.720;11.310;2022-07-29T12:31:51;5.00;;;4.60;;
53594;SDS011;39479;45.720;11.310;2022-07-29T12:34:19;5.70;;;4.53;;
53594;SDS011;39479;45.720;11.310;2022-07-29T12:36:45;6.10;;;5.07;;
53594;SDS011;39479;45.720;11.310;2022-07-29T12:39:11;6.20;;;5.35;;
53594;SDS011;39479;45.720;11.310;2022-07-29T12:41:38;5.78;;;5.18;;
53594;SDS011;39479;45.720;11.310;2022-07-29T12:44:04;6.57;;;5.43;;
53594;SDS011;39479;45.720;11.310;2022-07-29T12:46:30;5.93;;;5.05;;
53594;SDS011;39479;45.720;11.310;2022-07-29T13:06:57;5.55;;;5.00;;
53594;SDS011;39479;45.720;11.310;2022-07-29T13:09:35;7.80;;;5.95;;
53594;SDS011;39479;45.720;11.310;2022-07-29T13:12:01;6.72;;;5.60;;
53594;SDS011;39479;45.720;11.310;2022-07-29T13:14:32;5.90;;;5.32;;
53594;SDS011;39479;45.720;11.310;2022-07-29T13:17:03;6.28;;;5.63;;
53594;SDS011;39479;45.720;11.310;2022-07-29T13:19:37;7.35;;;5.63;;
53594;SDS011;39479;45.720;11.310;2022-07-29T13:22:05;7.93;;;5.40;;
53594;SDS011;39479;45.720;11.310;2022-07-29T13:24:31;7.97;;;6.30;;
53594;SDS011;39479;45.720;11.310;2022-07-29T13:26:57;6.32;;;5.72;;
53594;SDS011;39479;45.720;11.310;2022-07-29T13:29:23;6.97;;;5.85;;
53594;SDS011;39479;45.720;11.310;2022-07-29T13:31:51;6.95;;;5.70;;
53594;SDS011;39479;45.720;11.310;2022-07-29T13:34:17;8.80;;;6.57;;
53594;SDS011;39479;45.720;11.310;2022-07-29T13:36:45;8.95;;;6.70;;
53594;SDS011;39479;45.720;11.310;2022-07-29T13:39:11;6.38;;;5.72;;
53594;SDS011;39479;45.720;11.310;2022-07-29T13:41:37;6.28;;;5.15;;
53594;SDS011;39479;45.720;11.310;2022-07-29T13:44:03;6.82;;;5.80;;
53594;SDS011;39479;45.720;11.310;2022-07-29T13:46:29;8.23;;;6.47;;
53594;SDS011;39479;45.720;11.310;2022-07-29T13:48:55;10.32;;;7.03;;
53594;SDS011;39479;45.720;11.310;2022-07-29T13:51:21;6.50;;;5.60;;
53594;SDS011;39479;45.720;11.310;2022-07-29T13:53:47;13.55;;;12.00;;
53594;SDS011;39479;45.720;11.310;2022-07-29T13:56:13;9.20;;;8.30;;
53594;SDS011;39479;45.720;11.310;2022-07-29T13:58:39;6.43;;;5.82;;
53594;SDS011;39479;45.720;11.310;2022-07-29T14:01:05;6.38;;;5.70;;
53594;SDS011;39479;45.720;11.310;2022-07-29T14:03:31;6.70;;;6.00;;
53594;SDS011;39479;45.720;11.310;2022-07-29T14:05:58;9.38;;;5.82;;
53594;SDS011;39479;45.720;11.310;2022-07-29T14:08:25;7.57;;;6.93;;
53594;SDS011;39479;45.720;11.310;2022-07-29T14:10:51;6.88;;;6.25;;
53594;SDS011;39479;45.720;11.310;2022-07-29T14:13:17;7.40;;;6.70;;
53594;SDS011;39479;45.720;11.310;2022-07-29T14:15:43;7.22;;;6.50;;
53594;SDS011;39479;45.720;11.310;2022-07-29T14:18:09;7.28;;;6.60;;
53594;SDS011;39479;45.720;11.310;2022-07-29T14:20:35;7.60;;;6.90;;
53594;SDS011;39479;45.720;11.310;2022-07-29T14:23:01;7.43;;;6.72;;
53594;SDS011;39479;45.720;11.310;2022-07-29T14:25:27;6.93;;;6.32;;
53594;SDS011;39479;45.720;11.310;2022-07-29T14:27:53;7.55;;;6.38;;
53594;SDS011;39479;45.720;11.310;2022-07-29T14:30:20;8.63;;;6.78;;
53594;SDS011;39479;45.720;11.310;2022-07-29T14:32:46;7.32;;;6.63;;
53594;SDS011;39479;45.720;11.310;2022-07-29T14:35:12;7.35;;;6.65;;
53594;SDS011;39479;45.720;11.310;2022-07-29T14:37:38;7.07;;;6.05;;
53594;SDS011;39479;45.720;11.310;2022-07-29T14:40:05;6.93;;;6.22;;
53594;SDS011;39479;45.720;11.310;2022-07-29T14:42:31;6.88;;;6.00;;
53594;SDS011;39479;45.720;11.310;2022-07-29T14:44:57;8.52;;;6.25;;
53594;SDS011;39479;45.720;11.310;2022-07-29T14:47:23;6.95;;;6.30;;
53594;SDS011;39479;45.720;11.310;2022-07-29T14:49:49;8.77;;;6.72;;
53594;SDS011;39479;45.720;11.310;2022-07-29T14:52:15;8.30;;;6.60;;
53594;SDS011;39479;45.720;11.310;2022-07-29T14:54:41;7.20;;;6.50;;
53594;SDS011;39479;45.720;11.310;2022-07-29T14:57:07;7.28;;;6.55;;
53594;SDS011;39479;45.720;11.310;2022-07-29T14:59:33;6.50;;;5.90;;
53594;SDS011;39479;45.720;11.310;2022-07-29T15:01:59;7.43;;;6.65;;
53594;SDS011;39479;45.720;11.310;2022-07-29T15:04:25;7.15;;;6.45;;
53594;SDS011;39479;45.720;11.310;2022-07-29T15:06:51;6.68;;;6.07;;
53594;SDS011;39479;45.720;11.310;2022-07-29T15:09:18;6.78;;;5.63;;
53594;SDS011;39479;45.720;11.310;2022-07-29T15:11:44;6.22;;;5.72;;
53594;SDS011;39479;45.720;11.310;2022-07-29T15:14:10;7.20;;;6.50;;
53594;SDS011;39479;45.720;11.310;2022-07-29T15:16:36;6.22;;;5.63;;
53594;SDS011;39479;45.720;11.310;2022-07-29T15:19:03;7.00;;;6.30;;
53594;SDS011;39479;45.720;11.310;2022-07-29T15:21:29;7.07;;;6.38;;
53594;SDS011;39479;45.720;11.310;2022-07-29T15:23:55;7.10;;;6.40;;
53594;SDS011;39479;45.720;11.310;2022-07-29T15:26:21;6.35;;;5.78;;
53594;SDS011;39479;45.720;11.310;2022-07-29T15:28:47;6.95;;;5.97;;
53594;SDS011;39479;45.720;11.310;2022-07-29T15:31:14;12.40;;;11.20;;
53594;SDS011;39479;45.720;11.310;2022-07-29T15:33:40;6.88;;;6.20;;
53594;SDS011;39479;45.720;11.310;2022-07-29T15:36:06;7.05;;;5.85;;
53594;SDS011;39479;45.720;11.310;2022-07-29T15:38:32;6.82;;;6.00;;
53594;SDS011;39479;45.720;11.310;2022-07-29T15:40:58;6.18;;;5.57;;
53594;SDS011;39479;45.720;11.310;2022-07-29T15:43:24;6.05;;;5.43;;